createdAt,value
2019-06-08T00:01:20.608Z,99.90
2019-06-08T00:04:05.604Z,99.90
2019-06-08T00:06:50.412Z,99.90
2019-06-08T00:09:35.408Z,99.90
2019-06-08T00:12:21.318Z,99.90
2019-06-08T00:15:07.304Z,99.90
2019-06-08T00:17:52.658Z,99.90
2019-06-08T00:20:37.768Z,99.90
2019-06-08T00:23:22.478Z,99.90
2019-06-08T00:26:07.179Z,99.90
2019-06-08T00:28:52.014Z,99.90
2019-06-08T00:31:36.871Z,99.90
2019-06-08T00:34:22.730Z,99.90
2019-06-08T00:37:07.993Z,99.90
2019-06-08T00:39:52.574Z,99.90
2019-06-08T00:42:37.519Z,99.90
2019-06-08T00:45:23.575Z,99.90
2019-06-08T00:48:08.948Z,99.90
2019-06-08T00:50:53.679Z,99.90
2019-06-08T00:53:38.445Z,99.90
2019-06-08T00:56:23.838Z,99.90
2019-06-08T00:59:08.914Z,99.90
2019-06-08T01:01:54.507Z,99.90
2019-06-08T01:04:39.385Z,99.90
2019-06-08T01:07:26.195Z,99.90
2019-06-08T01:10:11.622Z,99.90
2019-06-08T01:12:57.042Z,99.90
2019-06-08T01:15:42.419Z,99.90
2019-06-08T01:18:27.470Z,99.90
2019-06-08T01:21:12.303Z,99.90
2019-06-08T01:23:57.190Z,99.90
2019-06-08T01:26:41.822Z,99.90
2019-06-08T01:29:28.127Z,99.90
2019-06-08T01:32:13.388Z,99.90
2019-06-08T01:34:58.572Z,99.90
2019-06-08T01:37:43.747Z,99.90
2019-06-08T01:40:29.514Z,99.90
2019-06-08T01:43:16.336Z,99.90
2019-06-08T01:46:01.695Z,99.90
2019-06-08T01:48:48.063Z,99.90
2019-06-08T01:51:32.935Z,99.90
2019-06-08T01:54:18.261Z,99.90
2019-06-08T01:57:04.022Z,99.90
2019-06-08T01:59:48.938Z,99.90
2019-06-08T02:02:34.271Z,99.90
2019-06-08T02:05:19.824Z,99.90
2019-06-08T02:08:04.718Z,99.90
2019-06-08T02:10:49.902Z,99.90
2019-06-08T02:13:35.336Z,99.90
2019-06-08T02:16:20.222Z,99.90
2019-06-08T02:19:05.256Z,99.90
2019-06-08T02:21:50.777Z,99.90
2019-06-08T02:24:35.892Z,99.90
2019-06-08T02:27:20.705Z,99.90
2019-06-08T02:30:09.223Z,99.90
2019-06-08T02:32:54.338Z,99.90
2019-06-08T02:35:39.584Z,99.90
2019-06-08T02:38:24.428Z,99.90
2019-06-08T02:41:09.086Z,99.90
2019-06-08T02:43:53.850Z,99.90
2019-06-08T02:46:40.415Z,99.90
2019-06-08T02:49:25.945Z,99.90
2019-06-08T02:52:11.772Z,99.90
2019-06-08T02:54:57.204Z,99.90
2019-06-08T02:57:43.268Z,99.90
2019-06-08T03:00:29.281Z,99.90
2019-06-08T03:03:14.858Z,99.90
2019-06-08T03:06:00.833Z,99.90
2019-06-08T03:08:48.178Z,99.90
2019-06-08T03:11:34.753Z,99.90
2019-06-08T03:14:23.462Z,99.90
2019-06-08T03:17:08.557Z,99.90
2019-06-08T03:19:53.552Z,99.90
2019-06-08T03:22:39.508Z,99.90
2019-06-08T03:25:25.343Z,99.90
2019-06-08T03:28:10.023Z,99.90
2019-06-08T03:30:55.349Z,99.90
2019-06-08T03:33:50.994Z,99.90
2019-06-08T03:36:28.469Z,99.90
2019-06-08T03:39:13.282Z,99.90
2019-06-08T03:41:57.934Z,99.90
2019-06-08T03:44:43.287Z,99.90
2019-06-08T03:47:29.795Z,99.90
2019-06-08T03:50:14.845Z,99.90
2019-06-08T03:53:00.022Z,99.90
2019-06-08T03:55:47.051Z,99.90
2019-06-08T03:58:34.196Z,99.90
2019-06-08T04:01:18.994Z,99.90
2019-06-08T04:04:04.280Z,99.90
2019-06-08T04:06:50.081Z,99.90
2019-06-08T04:09:37.624Z,99.90
2019-06-08T04:12:22.563Z,99.90
2019-06-08T04:15:09.067Z,99.90
2019-06-08T04:17:53.780Z,99.90
2019-06-08T04:20:40.335Z,99.90
2019-06-08T04:23:25.937Z,99.90
2019-06-08T04:26:10.623Z,99.90
2019-06-08T04:28:55.381Z,99.90
2019-06-08T04:31:41.787Z,99.90
2019-06-08T04:34:26.976Z,99.90
2019-06-08T04:37:15.769Z,99.90
2019-06-08T04:39:58.485Z,99.90
2019-06-08T04:42:44.426Z,99.90
2019-06-08T04:45:30.400Z,99.90
2019-06-08T04:48:15.018Z,99.90
2019-06-08T04:51:00.038Z,99.90
2019-06-08T04:53:45.562Z,99.90
2019-06-08T04:56:32.137Z,99.90
2019-06-08T04:59:17.152Z,99.90
2019-06-08T05:02:02.103Z,99.90
2019-06-08T05:04:47.050Z,99.90
2019-06-08T05:07:32.603Z,99.90
2019-06-08T05:10:18.170Z,99.90
2019-06-08T05:13:03.775Z,99.90
2019-06-08T05:15:50.305Z,99.90
2019-06-08T05:18:35.777Z,99.10
2019-06-08T05:21:20.827Z,98.60
2019-06-08T05:24:05.988Z,99.30
2019-06-08T05:26:51.095Z,98.40
2019-06-08T05:29:36.314Z,97.30
2019-06-08T05:32:20.994Z,95.40
2019-06-08T05:35:06.463Z,94.20
2019-06-08T05:37:51.673Z,92.80
2019-06-08T05:40:37.807Z,93.80
2019-06-08T05:43:22.846Z,91.20
2019-06-08T05:46:07.557Z,90.70
2019-06-08T05:48:52.507Z,90.30
2019-06-08T05:51:37.338Z,89.10
2019-06-08T05:54:22.403Z,84.90
2019-06-08T05:57:07.209Z,86.60
2019-06-08T05:59:52.381Z,84.70
2019-06-08T06:02:37.556Z,80.90
2019-06-08T06:05:23.981Z,85.00
2019-06-08T06:08:18.495Z,81.00
2019-06-08T06:10:55.565Z,81.60
2019-06-08T06:13:40.597Z,81.30
2019-06-08T06:16:25.742Z,82.50
2019-06-08T06:19:10.677Z,81.90
2019-06-08T06:21:55.811Z,83.30
2019-06-08T06:24:41.768Z,83.20
2019-06-08T06:27:27.003Z,83.80
2019-06-08T06:30:12.696Z,82.20
2019-06-08T06:32:58.083Z,80.20
2019-06-08T06:35:43.902Z,81.30
2019-06-08T06:38:28.830Z,80.90
2019-06-08T06:41:13.587Z,81.50
2019-06-08T06:43:58.577Z,79.40
2019-06-08T06:46:43.983Z,79.30
2019-06-08T06:49:28.957Z,78.00
2019-06-08T06:52:13.821Z,77.70
2019-06-08T06:54:58.728Z,77.60
2019-06-08T06:57:43.664Z,78.30
2019-06-08T07:00:31.409Z,77.00
2019-06-08T07:03:16.231Z,75.80
2019-06-08T07:06:01.143Z,75.00
2019-06-08T07:08:50.611Z,76.30
2019-06-08T07:11:35.939Z,73.30
2019-06-08T07:14:22.729Z,73.90
2019-06-08T07:17:08.230Z,72.60
2019-06-08T07:19:52.952Z,72.70
2019-06-08T07:22:37.957Z,74.70
2019-06-08T07:25:22.843Z,72.40
2019-06-08T07:28:07.884Z,75.80
2019-06-08T07:30:52.872Z,73.80
2019-06-08T07:33:38.462Z,74.70
2019-06-08T07:36:24.599Z,72.40
2019-06-08T07:39:09.850Z,73.20
2019-06-08T07:41:55.857Z,74.70
2019-06-08T07:44:42.017Z,72.00
2019-06-08T07:47:27.433Z,70.00
2019-06-08T07:50:14.533Z,70.20
2019-06-08T07:52:59.600Z,74.30
2019-06-08T07:55:45.482Z,75.80
2019-06-08T07:58:30.962Z,69.50
2019-06-08T08:01:15.840Z,69.50
2019-06-08T08:04:01.288Z,71.70
2019-06-08T08:06:45.981Z,70.90
2019-06-08T08:09:31.351Z,70.80
2019-06-08T08:12:16.759Z,68.70
2019-06-08T08:15:03.551Z,71.20
2019-06-08T08:17:49.078Z,68.90
2019-06-08T08:20:34.671Z,68.80
2019-06-08T08:23:19.765Z,68.70
2019-06-08T08:26:04.732Z,69.80
2019-06-08T08:28:52.933Z,69.50
2019-06-08T08:31:37.434Z,69.60
2019-06-08T08:34:22.745Z,68.30
2019-06-08T08:37:09.624Z,70.60
2019-06-08T08:39:55.569Z,70.90
2019-06-08T08:42:40.660Z,71.10
2019-06-08T08:45:27.627Z,70.00
2019-06-08T08:48:24.605Z,70.00
2019-06-08T08:51:03.272Z,69.40
2019-06-08T08:53:48.160Z,69.30
2019-06-08T08:56:33.753Z,69.00
2019-06-08T08:59:18.318Z,70.70
2019-06-08T09:02:03.529Z,68.40
2019-06-08T09:04:48.484Z,71.50
2019-06-08T09:07:33.519Z,69.20
2019-06-08T09:10:18.998Z,68.90
2019-06-08T09:13:04.754Z,67.50
2019-06-08T09:15:49.641Z,68.00
2019-06-08T09:18:34.529Z,66.40
2019-06-08T09:21:19.826Z,66.60
2019-06-08T09:24:07.695Z,66.20
2019-06-08T09:26:54.133Z,68.70
2019-06-08T09:29:40.037Z,66.30
2019-06-08T09:32:24.907Z,65.80
2019-06-08T09:35:10.432Z,65.40
2019-06-08T09:37:59.445Z,64.50
2019-06-08T09:40:42.957Z,64.80
2019-06-08T09:43:28.972Z,63.30
2019-06-08T09:46:14.192Z,63.80
2019-06-08T09:49:04.815Z,63.90
2019-06-08T09:51:48.477Z,62.70
2019-06-08T09:54:32.899Z,62.20
2019-06-08T09:57:18.850Z,64.10
2019-06-08T10:00:15.350Z,63.00
2019-06-08T10:02:54.674Z,63.20
2019-06-08T10:05:39.453Z,63.50
2019-06-08T10:08:24.613Z,63.60
2019-06-08T10:11:09.860Z,62.40
2019-06-08T10:13:57.060Z,62.10
2019-06-08T10:16:42.352Z,66.40
2019-06-08T10:19:27.557Z,63.60
2019-06-08T10:22:12.343Z,61.10
2019-06-08T10:25:00.272Z,61.90
2019-06-08T10:27:44.147Z,61.80
2019-06-08T10:30:30.399Z,62.10
2019-06-08T10:33:18.261Z,61.80
2019-06-08T10:36:05.270Z,60.60
2019-06-08T10:38:49.618Z,59.80
2019-06-08T10:41:34.740Z,62.30
2019-06-08T10:44:20.064Z,59.20
2019-06-08T10:47:06.671Z,58.70
2019-06-08T10:49:51.953Z,58.20
2019-06-08T10:52:39.132Z,57.40
2019-06-08T10:55:24.023Z,57.10
2019-06-08T10:58:10.895Z,58.30
2019-06-08T11:00:55.526Z,59.10
2019-06-08T11:03:40.765Z,59.90
2019-06-08T11:06:28.506Z,60.40
2019-06-08T11:09:15.320Z,61.10
2019-06-08T11:12:01.974Z,60.10
2019-06-08T11:14:48.184Z,61.50
2019-06-08T11:17:33.638Z,61.00
2019-06-08T11:20:20.563Z,60.90
2019-06-08T11:23:06.030Z,61.90
2019-06-08T11:25:52.551Z,61.70
2019-06-08T11:28:38.285Z,61.50
2019-06-08T11:31:24.607Z,64.80
2019-06-08T11:34:10.701Z,62.80
2019-06-08T11:36:55.898Z,59.10
2019-06-08T11:39:41.373Z,58.80
2019-06-08T11:42:28.510Z,60.60
2019-06-08T11:45:14.781Z,59.70
2019-06-08T11:48:00.473Z,62.00
2019-06-08T11:50:49.040Z,59.90
2019-06-08T11:53:34.839Z,57.30
2019-06-08T11:56:20.677Z,58.70
2019-06-08T11:59:07.200Z,60.00
2019-06-08T12:01:52.122Z,57.60
2019-06-08T12:04:38.411Z,57.80
2019-06-08T12:07:24.155Z,58.40
2019-06-08T12:10:12.167Z,58.30
2019-06-08T12:12:57.395Z,58.00
2019-06-08T12:15:42.550Z,57.30
2019-06-08T12:18:27.614Z,58.80
2019-06-08T12:21:13.276Z,58.50
2019-06-08T12:23:59.341Z,56.20
2019-06-08T12:26:44.842Z,56.10
2019-06-08T12:29:29.575Z,55.20
2019-06-08T12:32:16.234Z,57.10
2019-06-08T12:35:01.170Z,56.20
2019-06-08T12:37:48.825Z,55.20
2019-06-08T12:40:33.610Z,55.80
2019-06-08T12:43:20.300Z,58.20
2019-06-08T12:46:08.243Z,55.90
2019-06-08T12:48:52.572Z,55.80
2019-06-08T12:51:37.336Z,56.20
2019-06-08T12:54:22.384Z,56.30
2019-06-08T12:57:10.639Z,56.90
2019-06-08T12:59:54.869Z,58.30
2019-06-08T13:02:41.592Z,57.60
2019-06-08T13:05:27.630Z,57.60
2019-06-08T13:08:13.431Z,58.70
2019-06-08T13:11:00.399Z,59.20
2019-06-08T13:13:45.354Z,57.40
2019-06-08T13:16:30.715Z,58.00
2019-06-08T13:19:15.977Z,58.20
2019-06-08T13:22:02.036Z,59.00
2019-06-08T13:24:47.878Z,58.00
2019-06-08T13:27:32.641Z,56.90
2019-06-08T13:30:22.497Z,56.60
2019-06-08T13:33:04.720Z,56.50
2019-06-08T13:35:50.114Z,57.50
2019-06-08T13:38:37.578Z,56.80
2019-06-08T13:41:26.246Z,54.90
2019-06-08T13:44:09.636Z,55.90
2019-06-08T13:46:54.921Z,56.10
2019-06-08T13:49:39.800Z,56.60
2019-06-08T13:52:25.854Z,56.90
2019-06-08T13:55:12.850Z,56.30
2019-06-08T13:57:58.152Z,56.20
2019-06-08T14:00:43.041Z,56.50
2019-06-08T14:03:27.958Z,54.40
2019-06-08T14:06:14.180Z,55.10
2019-06-08T14:08:59.509Z,54.50
2019-06-08T14:11:44.600Z,54.00
2019-06-08T14:14:32.952Z,54.30
2019-06-08T14:17:20.206Z,52.60
2019-06-08T14:20:07.893Z,53.30
2019-06-08T14:22:52.454Z,53.50
2019-06-08T14:25:47.911Z,54.60
2019-06-08T14:28:24.814Z,53.00
2019-06-08T14:31:11.801Z,53.90
2019-06-08T14:33:56.981Z,55.20
2019-06-08T14:36:41.991Z,55.20
2019-06-08T14:39:29.619Z,54.90
2019-06-08T14:42:14.050Z,55.00
2019-06-08T14:44:59.530Z,55.40
2019-06-08T14:47:44.817Z,54.70
2019-06-08T14:50:31.244Z,55.10
2019-06-08T14:53:18.854Z,54.80
2019-06-08T14:56:08.502Z,55.00
2019-06-08T14:58:50.630Z,53.10
2019-06-08T15:01:37.994Z,54.20
2019-06-08T15:04:26.688Z,54.00
2019-06-08T15:07:10.120Z,53.60
2019-06-08T15:09:54.869Z,52.10
2019-06-08T15:12:40.152Z,53.60
2019-06-08T15:15:25.865Z,52.10
2019-06-08T15:18:11.886Z,53.30
2019-06-08T15:20:58.133Z,52.90
2019-06-08T15:23:43.110Z,53.80
2019-06-08T15:26:36.670Z,54.40
2019-06-08T15:29:15.782Z,53.80
2019-06-08T15:32:00.541Z,52.30
2019-06-08T15:34:47.692Z,51.60
2019-06-08T15:37:32.345Z,51.80
2019-06-08T15:40:17.808Z,50.80
2019-06-08T15:43:03.076Z,49.90
2019-06-08T15:45:51.422Z,49.70
2019-06-08T15:48:38.028Z,49.30
2019-06-08T15:51:22.736Z,49.50
2019-06-08T15:54:08.146Z,47.90
2019-06-08T15:56:53.748Z,49.10
2019-06-08T15:59:41.756Z,48.60
2019-06-08T16:02:27.318Z,48.80
2019-06-08T16:05:12.836Z,50.50
2019-06-08T16:07:57.913Z,48.20
2019-06-08T16:10:43.071Z,47.30
2019-06-08T16:13:28.523Z,48.00
2019-06-08T16:16:13.569Z,47.00
2019-06-08T16:18:58.770Z,47.00
2019-06-08T16:21:43.621Z,48.30
2019-06-08T16:24:29.731Z,50.20
2019-06-08T16:27:14.760Z,50.90
2019-06-08T16:29:59.691Z,49.70
2019-06-08T16:32:44.528Z,51.10
2019-06-08T16:35:29.670Z,50.40
2019-06-08T16:38:14.640Z,49.80
2019-06-08T16:40:59.338Z,51.30
2019-06-08T16:43:44.494Z,51.00
2019-06-08T16:46:30.114Z,51.80
2019-06-08T16:49:15.481Z,52.60
2019-06-08T16:52:00.611Z,52.10
2019-06-08T16:54:45.843Z,52.80
2019-06-08T16:57:31.012Z,53.90
2019-06-08T17:00:30.281Z,53.60
2019-06-08T17:03:03.271Z,54.60
2019-06-08T17:05:48.403Z,54.10
2019-06-08T17:08:37.080Z,56.20
2019-06-08T17:11:22.070Z,59.90
2019-06-08T17:14:07.140Z,64.60
2019-06-08T17:16:52.264Z,68.70
2019-06-08T17:19:38.287Z,72.40
2019-06-08T17:22:23.526Z,72.90
2019-06-08T17:25:08.695Z,72.70
2019-06-08T17:27:53.634Z,72.50
2019-06-08T17:30:39.379Z,73.30
2019-06-08T17:33:24.811Z,71.20
2019-06-08T17:36:09.726Z,71.50
2019-06-08T17:38:54.974Z,70.90
2019-06-08T17:41:40.198Z,72.50
2019-06-08T17:44:25.450Z,71.00
2019-06-08T17:47:10.490Z,73.40
2019-06-08T17:49:55.524Z,74.20
2019-06-08T17:52:41.103Z,74.30
2019-06-08T17:55:26.530Z,75.10
2019-06-08T17:58:11.450Z,73.70
2019-06-08T18:00:56.672Z,74.60
2019-06-08T18:03:44.726Z,74.60
2019-06-08T18:06:29.947Z,76.80
2019-06-08T18:09:17.347Z,74.40
2019-06-08T18:12:04.686Z,75.70
2019-06-08T18:14:50.076Z,76.00
2019-06-08T18:17:39.141Z,76.80
2019-06-08T18:20:24.016Z,77.00
2019-06-08T18:23:09.048Z,77.70
2019-06-08T18:25:54.000Z,80.60
2019-06-08T18:28:41.213Z,82.10
2019-06-08T18:31:27.675Z,83.00
2019-06-08T18:34:14.295Z,85.60
2019-06-08T18:36:59.495Z,90.00
2019-06-08T18:39:45.973Z,89.00
2019-06-08T18:42:31.545Z,91.00
2019-06-08T18:45:18.198Z,92.90
2019-06-08T18:48:07.010Z,93.00
2019-06-08T18:50:51.685Z,93.90
2019-06-08T18:53:54.391Z,95.10
2019-06-08T18:56:23.430Z,95.70
2019-06-08T18:59:08.714Z,96.10
2019-06-08T19:01:53.718Z,96.50
2019-06-08T19:04:41.542Z,97.40
2019-06-08T19:07:28.282Z,99.20
2019-06-08T19:10:18.689Z,99.40
2019-06-08T19:13:04.843Z,99.50
2019-06-08T19:15:52.975Z,99.90
2019-06-08T19:18:41.433Z,99.90
2019-06-08T19:21:23.935Z,99.90
2019-06-08T19:24:09.806Z,99.90
2019-06-08T19:26:55.121Z,99.90
2019-06-08T19:29:42.148Z,99.90
2019-06-08T19:32:28.070Z,99.90
2019-06-08T19:35:13.778Z,99.90
2019-06-08T19:37:59.031Z,99.90
2019-06-08T19:40:44.179Z,99.90
2019-06-08T19:43:30.037Z,99.90
2019-06-08T19:46:17.924Z,99.90
2019-06-08T19:49:01.931Z,99.90
2019-06-08T19:51:48.487Z,99.90
2019-06-08T19:54:33.694Z,99.90
2019-06-08T19:57:18.708Z,99.90
2019-06-08T20:00:07.297Z,99.90
2019-06-08T20:02:54.987Z,99.90
2019-06-08T20:05:38.679Z,99.90
2019-06-08T20:08:23.533Z,99.90
2019-06-08T20:11:09.412Z,99.90
2019-06-08T20:13:54.407Z,99.90
2019-06-08T20:16:40.444Z,99.90
2019-06-08T20:19:27.943Z,99.90
2019-06-08T20:22:13.358Z,99.90
2019-06-08T20:24:58.536Z,99.90
2019-06-08T20:27:45.251Z,99.90
2019-06-08T20:30:32.708Z,99.90
2019-06-08T20:33:19.329Z,99.90
2019-06-08T20:36:04.584Z,99.90
2019-06-08T20:38:50.807Z,99.90
2019-06-08T20:41:37.687Z,99.90
2019-06-08T20:44:22.935Z,99.90
2019-06-08T20:47:08.517Z,99.90
2019-06-08T20:49:53.668Z,99.90
2019-06-08T20:52:38.973Z,99.90
2019-06-08T20:55:24.292Z,99.90
2019-06-08T20:58:09.245Z,99.90
2019-06-08T21:00:54.309Z,99.90
2019-06-08T21:03:39.827Z,99.90
2019-06-08T21:06:24.872Z,99.90
2019-06-08T21:09:09.948Z,99.90
2019-06-08T21:11:56.346Z,99.90
2019-06-08T21:14:42.020Z,99.90
2019-06-08T21:17:28.910Z,99.90
2019-06-08T21:20:13.869Z,99.90
2019-06-08T21:23:00.048Z,99.90
2019-06-08T21:25:45.270Z,99.90
2019-06-08T21:28:32.835Z,99.90
2019-06-08T21:31:19.065Z,99.90
2019-06-08T21:34:04.170Z,99.90
2019-06-08T21:36:50.834Z,99.90
2019-06-08T21:39:39.010Z,99.90
2019-06-08T21:42:23.289Z,99.90
2019-06-08T21:45:09.607Z,99.90
2019-06-08T21:47:56.720Z,99.90
2019-06-08T21:50:42.156Z,99.90
2019-06-08T21:53:27.636Z,99.90
2019-06-08T21:56:12.711Z,99.90
2019-06-08T21:59:00.906Z,99.90
2019-06-08T22:01:46.263Z,99.90
2019-06-08T22:04:31.499Z,99.90
2019-06-08T22:07:17.699Z,99.90
2019-06-08T22:10:07.650Z,99.90
2019-06-08T22:12:53.836Z,99.90
2019-06-08T22:15:40.004Z,99.90
2019-06-08T22:18:27.305Z,99.90
2019-06-08T22:21:12.091Z,99.90
2019-06-08T22:23:59.071Z,99.90
2019-06-08T22:26:44.232Z,99.90
2019-06-08T22:29:29.468Z,99.90
2019-06-08T22:32:14.719Z,99.90
2019-06-08T22:35:01.829Z,99.90
2019-06-08T22:37:48.027Z,99.90
2019-06-08T22:40:33.245Z,99.90
2019-06-08T22:43:19.559Z,99.90
2019-06-08T22:46:05.114Z,99.90
2019-06-08T22:48:53.056Z,99.90
2019-06-08T22:51:38.516Z,99.90
2019-06-08T22:54:23.727Z,99.90
2019-06-08T22:57:08.438Z,99.90
2019-06-08T22:59:54.249Z,99.90
2019-06-08T23:02:39.729Z,99.90
2019-06-08T23:05:24.468Z,99.90
2019-06-08T23:08:09.682Z,99.90
2019-06-08T23:10:54.658Z,99.90
2019-06-08T23:13:39.788Z,99.90
2019-06-08T23:16:26.912Z,99.90
2019-06-08T23:19:11.448Z,99.90
2019-06-08T23:22:00.979Z,99.90
2019-06-08T23:24:47.601Z,99.90
2019-06-08T23:27:32.495Z,99.90
2019-06-08T23:30:18.589Z,99.90
2019-06-08T23:33:05.683Z,99.90
2019-06-08T23:36:32.294Z,99.90
2019-06-08T23:38:37.712Z,99.90
2019-06-08T23:41:22.397Z,99.90
2019-06-08T23:44:07.843Z,99.90
2019-06-08T23:46:53.137Z,99.90
2019-06-08T23:49:38.113Z,99.90
2019-06-08T23:52:23.422Z,99.90
2019-06-08T23:55:11.471Z,99.90
2019-06-08T23:57:56.134Z,99.90
